createdAt,value
2023-08-19T00:01:09.026Z,72.30
2023-08-19T00:03:36.756Z,72.40
2023-08-19T00:06:11.466Z,72.30
2023-08-19T00:08:38.581Z,72.50
2023-08-19T00:11:06.043Z,72.30
2023-08-19T00:13:32.841Z,72.40
2023-08-19T00:15:59.794Z,72.40
2023-08-19T00:18:26.791Z,72.50
2023-08-19T00:20:53.637Z,72.50
2023-08-19T00:23:25.498Z,72.50
2023-08-19T00:25:52.600Z,72.60
2023-08-19T00:28:19.503Z,72.60
2023-08-19T00:30:46.240Z,72.70
2023-08-19T00:33:12.978Z,72.70
2023-08-19T00:35:40.419Z,72.70
2023-08-19T00:38:07.768Z,72.80
2023-08-19T00:40:34.577Z,72.80
2023-08-19T00:43:01.276Z,72.70
2023-08-19T00:45:28.225Z,72.60
2023-08-19T00:47:55.467Z,72.60
2023-08-19T00:50:22.379Z,72.70
2023-08-19T00:52:49.156Z,72.60
2023-08-19T00:55:16.023Z,72.60
2023-08-19T00:57:43.909Z,72.60
2023-08-19T01:00:11.259Z,72.60
2023-08-19T01:02:38.140Z,72.60
2023-08-19T01:05:05.511Z,72.60
2023-08-19T01:07:52.178Z,72.60
2023-08-19T01:10:47.493Z,72.60
2023-08-19T01:13:18.929Z,72.60
2023-08-19T01:15:53.319Z,72.60
2023-08-19T01:18:20.812Z,72.60
2023-08-19T01:20:49.079Z,72.70
2023-08-19T01:23:19.820Z,72.70
2023-08-19T01:25:46.960Z,73.10
2023-08-19T01:28:15.271Z,72.80
2023-08-19T01:30:42.400Z,72.80
2023-08-19T01:33:09.573Z,72.80
2023-08-19T01:35:42.253Z,72.90
2023-08-19T01:38:15.709Z,73.00
2023-08-19T01:40:43.346Z,73.00
2023-08-19T01:43:12.831Z,73.10
2023-08-19T01:45:41.472Z,73.00
2023-08-19T01:48:08.343Z,73.00
2023-08-19T01:50:35.156Z,73.10
2023-08-19T01:53:01.988Z,73.20
2023-08-19T01:55:28.748Z,73.20
2023-08-19T01:57:55.431Z,73.20
2023-08-19T02:00:22.104Z,73.30
2023-08-19T02:02:48.913Z,73.40
2023-08-19T02:05:16.323Z,73.30
2023-08-19T02:07:43.878Z,73.40
2023-08-19T02:10:12.790Z,73.40
2023-08-19T02:12:39.665Z,73.50
2023-08-19T02:15:06.955Z,73.60
2023-08-19T02:17:34.469Z,73.50
2023-08-19T02:20:01.541Z,73.50
2023-08-19T02:22:28.294Z,73.60
2023-08-19T02:24:55.051Z,73.70
2023-08-19T02:27:22.567Z,73.70
2023-08-19T02:29:49.377Z,73.70
2023-08-19T02:32:16.350Z,73.60
2023-08-19T02:34:43.061Z,73.80
2023-08-19T02:37:10.419Z,73.80
2023-08-19T02:39:37.237Z,73.80
2023-08-19T02:42:04.066Z,73.80
2023-08-19T02:44:33.249Z,73.80
2023-08-19T02:46:59.933Z,73.80
2023-08-19T02:49:27.710Z,73.80
2023-08-19T02:51:54.387Z,73.60
2023-08-19T02:54:21.141Z,73.70
2023-08-19T02:56:48.478Z,73.60
2023-08-19T02:59:15.598Z,73.60
2023-08-19T03:01:43.109Z,73.60
2023-08-19T03:04:09.856Z,73.60
2023-08-19T03:06:36.570Z,73.60
2023-08-19T03:09:03.353Z,73.60
2023-08-19T03:11:30.379Z,73.70
2023-08-19T03:13:57.069Z,73.60
2023-08-19T03:16:24.032Z,73.60
2023-08-19T03:18:50.832Z,73.60
2023-08-19T03:21:17.525Z,73.60
2023-08-19T03:23:44.354Z,73.60
2023-08-19T03:26:11.285Z,73.60
2023-08-19T03:28:38.003Z,73.60
2023-08-19T03:31:11.865Z,73.60
2023-08-19T03:33:40.046Z,73.60
2023-08-19T03:36:06.918Z,73.60
2023-08-19T03:38:33.649Z,73.60
2023-08-19T03:41:00.445Z,73.60
2023-08-19T03:43:27.117Z,73.60
2023-08-19T03:45:53.835Z,73.70
2023-08-19T03:48:20.512Z,73.50
2023-08-19T03:50:47.262Z,73.50
2023-08-19T03:53:13.994Z,73.50
2023-08-19T03:55:40.697Z,73.50
2023-08-19T03:58:07.366Z,73.50
2023-08-19T04:00:34.425Z,73.60
2023-08-19T04:03:01.143Z,73.50
2023-08-19T04:05:27.890Z,73.60
2023-08-19T04:07:55.669Z,73.70
2023-08-19T04:10:22.366Z,73.70
2023-08-19T04:12:49.093Z,73.60
2023-08-19T04:15:15.798Z,73.60
2023-08-19T04:17:42.550Z,73.60
2023-08-19T04:20:10.158Z,73.60
2023-08-19T04:22:38.142Z,73.70
2023-08-19T04:25:05.310Z,73.60
2023-08-19T04:27:32.950Z,73.60
2023-08-19T04:29:59.945Z,74.40
2023-08-19T04:32:26.855Z,73.70
2023-08-19T04:34:53.930Z,73.80
2023-08-19T04:37:20.649Z,73.90
2023-08-19T04:39:47.433Z,73.90
2023-08-19T04:42:14.173Z,74.00
2023-08-19T04:44:40.920Z,74.00
2023-08-19T04:47:07.614Z,74.00
2023-08-19T04:49:34.328Z,74.10
2023-08-19T04:52:01.080Z,74.00
2023-08-19T04:54:27.814Z,73.90
2023-08-19T04:56:54.524Z,73.80
2023-08-19T04:59:21.306Z,73.90
2023-08-19T05:01:48.019Z,73.90
2023-08-19T05:04:14.865Z,73.90
2023-08-19T05:06:41.732Z,73.90
2023-08-19T05:09:08.690Z,73.90
2023-08-19T05:11:35.483Z,74.00
2023-08-19T05:14:02.227Z,73.90
2023-08-19T05:16:28.995Z,73.80
2023-08-19T05:19:21.603Z,73.90
2023-08-19T05:21:51.710Z,73.90
2023-08-19T05:24:19.515Z,73.90
2023-08-19T05:26:46.551Z,73.60
2023-08-19T05:29:13.816Z,73.70
2023-08-19T05:31:41.817Z,73.80
2023-08-19T05:34:09.346Z,73.80
2023-08-19T05:36:36.441Z,73.60
2023-08-19T05:39:03.752Z,73.60
2023-08-19T05:41:30.700Z,73.70
2023-08-19T05:43:57.517Z,73.80
2023-08-19T05:46:24.436Z,73.60
2023-08-19T05:48:51.334Z,73.70
2023-08-19T05:51:22.596Z,73.60
2023-08-19T05:53:50.377Z,73.60
2023-08-19T05:56:19.086Z,73.60
2023-08-19T05:58:47.418Z,73.50
2023-08-19T06:01:14.639Z,73.50
2023-08-19T06:03:41.708Z,73.50
2023-08-19T06:06:08.695Z,73.50
2023-08-19T06:08:35.710Z,73.60
2023-08-19T06:11:06.266Z,73.60
2023-08-19T06:13:34.087Z,74.10
2023-08-19T06:16:02.457Z,74.00
2023-08-19T06:18:29.898Z,74.10
2023-08-19T06:20:57.424Z,74.10
2023-08-19T06:23:24.741Z,73.80
2023-08-19T06:25:53.206Z,73.50
2023-08-19T06:28:21.224Z,73.70
2023-08-19T06:30:48.603Z,73.80
2023-08-19T06:33:16.077Z,73.40
2023-08-19T06:35:49.230Z,73.60
2023-08-19T06:38:27.183Z,73.70
2023-08-19T06:40:53.814Z,73.90
2023-08-19T06:43:22.244Z,72.70
2023-08-19T06:45:53.084Z,73.60
2023-08-19T06:48:20.688Z,73.80
2023-08-19T06:50:48.248Z,73.80
2023-08-19T06:53:15.349Z,74.20
2023-08-19T06:55:46.617Z,73.40
2023-08-19T06:58:21.982Z,73.50
2023-08-19T07:00:50.293Z,73.00
2023-08-19T07:03:20.265Z,73.20
2023-08-19T07:05:48.946Z,73.90
2023-08-19T07:08:17.689Z,73.80
2023-08-19T07:10:46.208Z,74.30
2023-08-19T07:13:13.314Z,74.00
2023-08-19T07:15:43.410Z,73.60
2023-08-19T07:18:12.999Z,73.50
2023-08-19T07:20:39.976Z,73.30
2023-08-19T07:23:09.334Z,73.40
2023-08-19T07:25:36.830Z,73.50
2023-08-19T07:28:04.576Z,73.40
2023-08-19T07:30:34.710Z,73.50
2023-08-19T07:33:01.530Z,74.10
2023-08-19T07:35:28.274Z,74.00
2023-08-19T07:37:55.159Z,74.00
2023-08-19T07:40:21.933Z,73.80
2023-08-19T07:42:48.671Z,73.80
2023-08-19T07:45:15.444Z,73.80
2023-08-19T07:47:42.190Z,73.50
2023-08-19T07:50:09.366Z,73.60
2023-08-19T07:52:36.040Z,73.90
2023-08-19T07:55:02.753Z,73.90
2023-08-19T07:57:29.657Z,73.60
2023-08-19T07:59:56.420Z,74.20
2023-08-19T08:02:23.579Z,74.00
2023-08-19T08:04:51.026Z,74.10
2023-08-19T08:07:17.928Z,73.70
2023-08-19T08:09:47.402Z,73.80
2023-08-19T08:12:14.135Z,73.80
2023-08-19T08:14:40.898Z,73.80
2023-08-19T08:17:07.656Z,73.90
2023-08-19T08:19:34.373Z,74.20
2023-08-19T08:22:01.179Z,74.50
2023-08-19T08:24:27.965Z,74.80
2023-08-19T08:26:54.760Z,74.60
2023-08-19T08:29:21.448Z,74.70
2023-08-19T08:31:48.206Z,74.70
2023-08-19T08:34:15.015Z,74.90
2023-08-19T08:36:41.716Z,74.90
2023-08-19T08:39:08.530Z,75.00
2023-08-19T08:41:39.880Z,75.60
2023-08-19T08:44:10.315Z,75.60
2023-08-19T08:46:39.422Z,75.30
2023-08-19T08:49:06.967Z,75.30
2023-08-19T08:51:33.692Z,75.40
2023-08-19T08:54:02.253Z,76.30
2023-08-19T08:56:30.321Z,76.60
2023-08-19T08:58:57.147Z,76.60
2023-08-19T09:01:25.811Z,77.00
2023-08-19T09:04:02.152Z,77.10
2023-08-19T09:06:28.910Z,77.40
2023-08-19T09:09:09.729Z,77.20
2023-08-19T09:11:39.606Z,77.40
2023-08-19T09:14:34.132Z,77.40
2023-08-19T09:17:00.879Z,77.10
2023-08-19T09:19:27.631Z,77.00
2023-08-19T09:21:54.456Z,76.70
2023-08-19T09:24:22.645Z,77.00
2023-08-19T09:26:55.220Z,76.70
2023-08-19T09:29:23.386Z,74.30
2023-08-19T09:31:53.363Z,76.70
2023-08-19T09:34:20.185Z,76.10
2023-08-19T09:36:46.978Z,76.20
2023-08-19T09:39:13.733Z,76.80
2023-08-19T09:41:40.817Z,76.80
2023-08-19T09:44:14.616Z,76.70
2023-08-19T09:46:45.674Z,76.90
2023-08-19T09:49:22.105Z,77.00
2023-08-19T09:51:57.029Z,77.20
2023-08-19T10:47:17.457Z,77.10
2023-08-19T10:49:47.062Z,72.70
2023-08-19T10:52:22.187Z,72.30
2023-08-19T10:54:49.025Z,72.60
2023-08-19T10:57:26.228Z,72.40
2023-08-19T10:59:57.812Z,70.00
2023-08-19T11:02:26.164Z,67.40
2023-08-19T11:04:53.328Z,69.50
2023-08-19T11:07:21.246Z,67.00
2023-08-19T11:09:50.178Z,66.90
2023-08-19T11:12:19.593Z,68.10
2023-08-19T11:14:52.822Z,66.50
2023-08-19T11:17:28.537Z,66.10
2023-08-19T11:19:55.305Z,66.20
2023-08-19T11:22:22.721Z,66.40
2023-08-19T11:24:51.084Z,67.00
2023-08-19T11:27:18.809Z,67.10
2023-08-19T11:29:48.773Z,66.90
2023-08-19T11:32:21.866Z,65.90
2023-08-19T11:34:48.740Z,66.20
2023-08-19T11:37:17.146Z,66.20
2023-08-19T11:39:46.124Z,67.70
2023-08-19T11:42:12.851Z,67.00
2023-08-19T11:44:43.576Z,66.70
2023-08-19T11:47:10.429Z,66.70
2023-08-19T11:49:37.190Z,66.70
2023-08-19T11:52:04.094Z,66.70
2023-08-19T11:54:30.927Z,66.90
2023-08-19T11:57:02.819Z,66.30
2023-08-19T11:59:34.459Z,66.70
2023-08-19T12:02:05.937Z,66.40
2023-08-19T12:04:35.144Z,67.20
2023-08-19T12:07:11.499Z,67.50
2023-08-19T12:09:39.348Z,67.90
2023-08-19T12:12:11.126Z,67.80
2023-08-19T12:14:39.278Z,67.70
2023-08-19T12:17:09.581Z,68.90
2023-08-19T12:19:37.264Z,68.30
2023-08-19T12:22:05.451Z,67.70
2023-08-19T12:24:32.895Z,68.10
2023-08-19T12:26:59.774Z,68.00
2023-08-19T12:29:26.616Z,67.60
2023-08-19T12:31:53.352Z,66.80
2023-08-19T12:34:20.144Z,66.60
2023-08-19T12:36:46.978Z,66.70
2023-08-19T12:39:14.106Z,66.90
2023-08-19T12:41:41.234Z,67.20
2023-08-19T12:44:08.031Z,66.60
2023-08-19T12:46:43.063Z,66.70
2023-08-19T12:49:09.788Z,66.60
2023-08-19T12:51:36.689Z,65.80
2023-08-19T12:54:03.662Z,65.30
2023-08-19T12:56:33.746Z,65.20
2023-08-19T12:59:00.504Z,65.80
2023-08-19T13:01:27.323Z,65.00
2023-08-19T13:03:54.112Z,64.70
2023-08-19T13:06:21.858Z,64.40
2023-08-19T13:08:48.792Z,63.80
2023-08-19T13:11:15.562Z,63.70
2023-08-19T13:13:42.342Z,63.40
2023-08-19T13:16:09.085Z,62.90
2023-08-19T13:18:35.833Z,61.80
2023-08-19T13:21:02.561Z,61.10
2023-08-19T13:23:30.311Z,60.00
2023-08-19T13:25:57.049Z,59.70
2023-08-19T13:28:23.750Z,58.10
2023-08-19T13:30:50.836Z,57.30
2023-08-19T13:33:17.635Z,56.50
2023-08-19T13:35:44.344Z,55.90
2023-08-19T13:38:11.191Z,56.50
2023-08-19T13:40:37.901Z,54.90
2023-08-19T13:43:04.783Z,55.50
2023-08-19T13:45:31.584Z,55.80
2023-08-19T13:48:12.398Z,54.40
2023-08-19T13:50:43.339Z,54.80
2023-08-19T13:53:10.133Z,55.60
2023-08-19T13:55:36.941Z,55.30
2023-08-19T13:58:03.950Z,56.40
2023-08-19T14:00:33.669Z,55.50
2023-08-19T14:03:00.593Z,55.30
2023-08-19T14:05:28.980Z,56.30
2023-08-19T14:07:55.868Z,57.40
2023-08-19T14:10:24.834Z,57.20
2023-08-19T14:12:51.600Z,57.40
2023-08-19T14:15:18.506Z,56.70
2023-08-19T14:17:46.407Z,56.40
2023-08-19T14:20:13.292Z,56.80
2023-08-19T14:22:43.095Z,57.30
2023-08-19T14:25:11.662Z,56.20
2023-08-19T14:27:39.645Z,56.60
2023-08-19T14:30:07.472Z,57.40
2023-08-19T14:32:34.242Z,56.70
2023-08-19T14:35:01.028Z,58.10
2023-08-19T14:37:27.704Z,57.40
2023-08-19T14:39:54.516Z,57.70
2023-08-19T14:42:21.431Z,57.30
2023-08-19T14:44:48.225Z,57.40
2023-08-19T14:47:15.250Z,58.30
2023-08-19T14:49:41.978Z,58.50
2023-08-19T14:52:08.717Z,57.90
2023-08-19T14:54:35.722Z,58.00
2023-08-19T14:57:02.436Z,58.30
2023-08-19T14:59:31.010Z,58.10
2023-08-19T15:01:57.756Z,58.00
2023-08-19T15:04:24.738Z,58.10
2023-08-19T15:06:51.729Z,58.10
2023-08-19T15:09:18.582Z,58.20
2023-08-19T15:11:45.318Z,58.20
2023-08-19T15:14:12.286Z,58.80
2023-08-19T15:16:39.697Z,59.40
2023-08-19T15:19:08.423Z,58.30
2023-08-19T15:21:37.527Z,58.20
2023-08-19T15:24:07.444Z,58.80
2023-08-19T15:26:34.196Z,59.00
2023-08-19T15:29:01.028Z,59.10
2023-08-19T15:31:33.422Z,59.00
2023-08-19T15:34:01.641Z,59.20
2023-08-19T15:36:28.438Z,58.60
2023-08-19T15:38:55.232Z,59.10
2023-08-19T15:41:21.991Z,59.20
2023-08-19T15:43:48.764Z,59.20
2023-08-19T15:46:15.780Z,59.40
2023-08-19T15:48:42.539Z,59.10
2023-08-19T15:51:09.267Z,59.20
2023-08-19T15:53:36.009Z,59.40
2023-08-19T15:56:02.781Z,58.90
2023-08-19T15:58:29.747Z,59.10
2023-08-19T16:00:56.569Z,59.70
2023-08-19T16:03:23.352Z,59.20
2023-08-19T16:05:50.148Z,58.30
2023-08-19T16:08:17.161Z,58.40
2023-08-19T16:10:43.914Z,58.60
2023-08-19T16:13:10.640Z,59.20
2023-08-19T16:15:38.230Z,58.80
2023-08-19T16:18:05.432Z,58.00
2023-08-19T16:20:32.189Z,58.00
2023-08-19T16:22:58.909Z,58.40
2023-08-19T16:25:25.711Z,58.60
2023-08-19T16:27:53.340Z,58.20
2023-08-19T16:30:20.223Z,58.50
2023-08-19T16:32:47.111Z,58.40
2023-08-19T16:35:15.141Z,58.00
2023-08-19T16:37:41.913Z,58.50
2023-08-19T16:40:10.144Z,58.40
2023-08-19T16:42:36.881Z,59.10
2023-08-19T16:45:03.970Z,58.90
2023-08-19T16:47:33.836Z,58.90
2023-08-19T16:50:00.846Z,58.10
2023-08-19T16:52:29.046Z,57.60
2023-08-19T16:54:56.491Z,57.80
2023-08-19T16:57:23.401Z,58.10
2023-08-19T16:59:50.214Z,58.00
2023-08-19T17:02:17.177Z,57.90
2023-08-19T17:04:51.093Z,57.80
2023-08-19T17:07:21.078Z,57.40
2023-08-19T17:09:51.160Z,57.50
2023-08-19T17:12:17.983Z,56.70
2023-08-19T17:14:44.792Z,56.20
2023-08-19T17:17:11.555Z,56.20
2023-08-19T17:19:38.302Z,55.60
2023-08-19T17:22:05.084Z,56.20
2023-08-19T17:24:31.845Z,56.40
2023-08-19T17:26:58.789Z,56.40
2023-08-19T17:29:25.609Z,55.70
2023-08-19T17:31:52.456Z,56.90
2023-08-19T17:34:19.181Z,56.20
2023-08-19T17:36:47.422Z,56.40
2023-08-19T17:39:15.406Z,56.10
2023-08-19T17:41:42.242Z,55.90
2023-08-19T17:44:11.870Z,55.50
2023-08-19T17:46:41.048Z,55.70
2023-08-19T17:49:07.852Z,57.00
2023-08-19T17:51:34.524Z,57.10
2023-08-19T17:54:01.350Z,56.80
2023-08-19T17:56:28.175Z,56.90
2023-08-19T17:58:56.032Z,57.10
2023-08-19T18:01:22.873Z,57.30
2023-08-19T18:03:49.679Z,57.80
2023-08-19T18:06:16.601Z,57.60
2023-08-19T18:08:43.283Z,58.00
2023-08-19T18:11:11.370Z,57.40
2023-08-19T18:13:38.036Z,57.60
2023-08-19T18:16:04.898Z,58.50
2023-08-19T18:18:31.629Z,57.70
2023-08-19T18:20:58.417Z,57.00
2023-08-19T18:23:25.105Z,57.20
2023-08-19T18:25:51.960Z,57.70
2023-08-19T18:28:18.672Z,57.90
2023-08-19T18:30:45.451Z,56.70
2023-08-19T18:33:12.247Z,57.10
2023-08-19T18:35:39.032Z,57.00
2023-08-19T18:38:05.811Z,57.30
2023-08-19T18:40:34.404Z,57.20
2023-08-19T18:43:01.196Z,57.40
2023-08-19T18:45:27.933Z,56.80
2023-08-19T18:48:07.032Z,56.80
2023-08-19T18:50:35.804Z,56.70
2023-08-19T18:53:03.315Z,56.60
2023-08-19T18:55:31.413Z,56.40
2023-08-19T18:57:58.367Z,56.20
2023-08-19T19:00:25.613Z,57.80
2023-08-19T19:02:52.715Z,56.00
2023-08-19T19:05:22.032Z,55.70
2023-08-19T19:07:49.686Z,55.60
2023-08-19T19:10:17.923Z,55.50
2023-08-19T19:12:48.804Z,55.90
2023-08-19T19:15:17.189Z,55.70
2023-08-19T19:17:50.628Z,56.30
2023-08-19T19:20:17.532Z,55.90
2023-08-19T19:22:48.340Z,56.10
2023-08-19T19:25:15.836Z,56.20
2023-08-19T19:27:43.997Z,56.60
2023-08-19T19:30:11.094Z,56.60
2023-08-19T19:32:39.056Z,58.00
2023-08-19T19:35:09.175Z,57.40
2023-08-19T19:37:37.322Z,57.50
2023-08-19T19:40:05.509Z,57.70
2023-08-19T19:42:32.234Z,57.20
2023-08-19T19:44:59.365Z,58.40
2023-08-19T19:47:27.303Z,57.30
2023-08-19T19:49:54.148Z,57.80
2023-08-19T19:52:20.902Z,57.90
2023-08-19T19:54:47.706Z,57.80
2023-08-19T19:57:14.677Z,57.90
2023-08-19T19:59:41.444Z,57.80
2023-08-19T20:02:08.950Z,58.10
2023-08-19T20:04:35.729Z,58.00
2023-08-19T20:07:02.422Z,58.00
2023-08-19T20:09:31.455Z,58.10
2023-08-19T20:11:58.705Z,57.80
2023-08-19T20:14:25.541Z,57.90
2023-08-19T20:16:52.336Z,57.70
2023-08-19T20:19:19.095Z,57.70
2023-08-19T20:21:46.139Z,57.60
2023-08-19T20:24:13.233Z,57.80
2023-08-19T20:26:40.273Z,57.90
2023-08-19T20:29:08.016Z,57.80
2023-08-19T20:31:34.733Z,57.70
2023-08-19T20:34:01.876Z,57.70
2023-08-19T20:36:33.281Z,57.70
2023-08-19T20:39:00.612Z,57.70
2023-08-19T20:41:28.001Z,57.90
2023-08-19T20:44:15.376Z,57.70
2023-08-19T20:46:44.028Z,57.80
2023-08-19T20:49:12.889Z,57.50
2023-08-19T20:51:40.106Z,57.40
2023-08-19T20:54:07.700Z,57.30
2023-08-19T20:56:34.816Z,57.30
2023-08-19T20:59:02.182Z,57.10
2023-08-19T21:01:30.348Z,57.10
2023-08-19T21:03:57.317Z,57.00
2023-08-19T21:06:24.194Z,57.10
2023-08-19T21:08:51.050Z,57.30
2023-08-19T21:11:18.046Z,57.30
2023-08-19T21:13:45.070Z,57.40
2023-08-19T21:16:11.886Z,57.60
2023-08-19T21:21:06.397Z,57.70
2023-08-19T21:23:35.250Z,57.80
2023-08-19T21:26:03.535Z,58.00
2023-08-19T21:28:33.469Z,58.00
2023-08-19T21:31:00.230Z,58.10
2023-08-19T21:40:49.397Z,58.90
2023-08-19T21:43:16.156Z,58.40
2023-08-19T21:45:43.051Z,58.50
2023-08-19T21:48:13.353Z,58.60
2023-08-19T21:50:40.362Z,58.60
2023-08-19T21:53:08.242Z,58.60
2023-08-19T21:55:36.164Z,58.70
2023-08-19T21:58:03.860Z,58.80
2023-08-19T22:00:32.974Z,58.80
2023-08-19T22:03:03.674Z,58.80
2023-08-19T22:05:47.665Z,59.10
2023-08-19T22:08:15.421Z,59.00
2023-08-19T22:10:43.079Z,59.00
2023-08-19T22:15:37.656Z,59.20
2023-08-19T22:20:48.596Z,59.30
2023-08-19T22:23:18.029Z,59.20
2023-08-19T22:25:45.046Z,59.20
2023-08-19T22:28:11.991Z,59.30
2023-08-19T22:30:39.109Z,59.00
2023-08-19T22:33:06.444Z,59.30
2023-08-19T22:35:33.338Z,59.50
2023-08-19T22:38:00.169Z,59.30
2023-08-19T22:40:26.945Z,59.50
2023-08-19T22:42:53.680Z,59.30
2023-08-19T22:45:20.383Z,59.30
2023-08-19T22:47:47.122Z,59.30
2023-08-19T22:50:14.038Z,59.10
2023-08-19T22:52:40.952Z,59.30
2023-08-19T22:55:08.554Z,59.50
2023-08-19T22:57:35.433Z,59.30
2023-08-19T23:00:02.540Z,59.10
2023-08-19T23:02:29.739Z,59.40
2023-08-19T23:04:56.643Z,59.30
2023-08-19T23:07:23.377Z,59.60
2023-08-19T23:09:52.714Z,59.60
2023-08-19T23:12:19.471Z,59.60
2023-08-19T23:14:46.185Z,59.50
2023-08-19T23:17:13.653Z,59.40
2023-08-19T23:19:40.532Z,59.40
2023-08-19T23:22:07.294Z,59.80
2023-08-19T23:24:33.991Z,59.80
2023-08-19T23:27:01.048Z,59.70
2023-08-19T23:29:27.956Z,59.50
2023-08-19T23:31:54.763Z,59.50
2023-08-19T23:34:22.610Z,59.40
2023-08-19T23:36:49.445Z,59.40
2023-08-19T23:39:16.268Z,59.40
2023-08-19T23:41:43.003Z,59.40
2023-08-19T23:44:09.820Z,59.70
2023-08-19T23:46:36.601Z,59.60
2023-08-19T23:56:28.652Z,59.50
2023-08-19T23:58:55.955Z,60.10
